Time;durP1;ratioP1;P1;durP2;ratioP2;P2;SDS_P1;SDS_P2;PMS_P1;PMS_P2;Temp;Humidity;BMP_temperature;BMP_pressure;BME280_temperature;BME280_humidity;BME280_pressure;Samples;Min_cycle;Max_cycle;Signal;HPM_P1;HPM_P2
2021/11/29 00:00:25;;;;;;;14.02;10.50;;;0.50;99.90;;;;;;5053220;28;20033;-70
2021/11/29 00:03:02;;;;;;;14.18;9.50;;;0.60;99.90;;;;;;5053434;28;20483;-69
2021/11/29 00:05:34;;;;;;;14.90;10.07;;;0.60;99.90;;;;;;5053546;28;20682;-70
2021/11/29 00:08:06;;;;;;;13.40;9.73;;;0.60;99.90;;;;;;5052121;28;20384;-70
2021/11/29 00:10:38;;;;;;;14.15;10.10;;;0.60;99.90;;;;;;5052069;28;20061;-70
2021/11/29 00:13:10;;;;;;;15.63;10.25;;;0.70;99.90;;;;;;5053440;28;20036;-70
2021/11/29 00:15:37;;;;;;;14.65;10.43;;;0.70;99.90;;;;;;5053187;28;20041;-70
2021/11/29 00:18:09;;;;;;;14.35;10.35;;;0.70;99.90;;;;;;5053340;28;20503;-69
2021/11/29 00:20:44;;;;;;;14.23;9.65;;;0.80;99.90;;;;;;5051790;28;20029;-70
2021/11/29 00:23:16;;;;;;;14.00;10.02;;;0.80;99.90;;;;;;5051698;28;20448;-69
2021/11/29 00:25:48;;;;;;;17.25;10.93;;;0.70;99.90;;;;;;5052777;28;20120;-69
2021/11/29 00:28:20;;;;;;;15.35;10.07;;;0.70;99.90;;;;;;5052791;28;20123;-70
2021/11/29 00:30:47;;;;;;;13.98;10.38;;;0.70;99.90;;;;;;5051053;28;20073;-72
2021/11/29 00:33:15;;;;;;;15.32;10.50;;;0.70;99.90;;;;;;5052509;28;20045;-69
2021/11/29 00:35:48;;;;;;;17.60;11.80;;;0.70;99.90;;;;;;5051323;28;20124;-69
2021/11/29 00:38:20;;;;;;;14.63;10.38;;;0.70;99.90;;;;;;5051178;28;20140;-70
2021/11/29 00:40:51;;;;;;;13.75;9.60;;;0.70;99.90;;;;;;5050832;28;20094;-71
2021/11/29 00:43:23;;;;;;;12.75;9.63;;;0.60;99.90;;;;;;5053102;28;20044;-68
2021/11/29 00:45:55;;;;;;;15.43;10.35;;;0.50;99.90;;;;;;5053509;28;20127;-71
2021/11/29 00:48:27;;;;;;;14.40;10.15;;;0.50;99.90;;;;;;5053121;28;20136;-72
2021/11/29 00:50:54;;;;;;;15.35;10.20;;;0.50;99.90;;;;;;5053011;28;20106;-72
2021/11/29 00:53:25;;;;;;;17.10;10.27;;;0.40;99.90;;;;;;5053254;28;20045;-72
2021/11/29 00:55:57;;;;;;;15.15;10.20;;;0.50;99.90;;;;;;5053374;28;20047;-72
2021/11/29 00:58:30;;;;;;;15.60;11.45;;;0.50;99.90;;;;;;5053710;28;20388;-73
2021/11/29 01:00:59;;;;;;;16.63;10.60;;;0.50;99.90;;;;;;5050041;28;20131;-72
2021/11/29 01:03:26;;;;;;;15.27;10.52;;;0.40;99.90;;;;;;5051668;28;20574;-72
2021/11/29 01:05:58;;;;;;;13.93;10.93;;;0.40;99.90;;;;;;5053158;28;20131;-72
2021/11/29 01:08:31;;;;;;;14.93;10.17;;;0.40;99.90;;;;;;5051315;28;20037;-72
2021/11/29 01:11:05;;;;;;;15.20;11.30;;;0.50;99.90;;;;;;5052527;28;20354;-72
2021/11/29 01:13:37;;;;;;;;;;;0.40;99.90;;;;;;5053336;28;20584;-71
2021/11/29 01:16:04;;;;;;;13.85;10.05;;;0.40;99.90;;;;;;5052721;28;20463;-72
2021/11/29 01:18:37;;;;;;;12.52;10.38;;;0.50;99.90;;;;;;5051258;28;20573;-72
2021/11/29 01:21:09;;;;;;;16.05;9.80;;;0.40;99.90;;;;;;5051298;28;20041;-72
2021/11/29 01:23:41;;;;;;;12.35;10.05;;;0.40;99.90;;;;;;5035519;28;20132;-72
2021/11/29 01:26:13;;;;;;;13.73;10.05;;;0.40;99.90;;;;;;5052631;28;20045;-72
2021/11/29 01:28:45;;;;;;;13.57;10.25;;;0.40;99.90;;;;;;5051381;28;20511;-72
2021/11/29 01:31:17;;;;;;;12.77;10.27;;;0.40;99.90;;;;;;5052238;28;20526;-73
2021/11/29 01:33:48;;;;;;;15.43;10.68;;;0.40;99.90;;;;;;5052544;28;20044;-72
2021/11/29 01:36:15;;;;;;;13.45;9.93;;;0.50;99.90;;;;;;5052348;28;20157;-72
2021/11/29 01:38:43;;;;;;;12.40;9.02;;;0.50;99.90;;;;;;5034636;28;20061;-71
2021/11/29 01:41:16;;;;;;;13.55;10.20;;;0.50;99.90;;;;;;5052102;28;20108;-71
2021/11/29 01:43:49;;;;;;;13.07;9.45;;;0.50;99.90;;;;;;5053204;28;20041;-72
2021/11/29 01:46:21;;;;;;;15.23;9.95;;;0.50;99.90;;;;;;5055088;28;20128;-72
2021/11/29 01:48:53;;;;;;;14.30;10.63;;;0.50;99.90;;;;;;5053190;28;20041;-72
2021/11/29 01:51:27;;;;;;;12.40;9.60;;;0.50;99.90;;;;;;5051746;28;20112;-71
2021/11/29 01:54:01;;;;;;;13.57;9.45;;;0.50;99.90;;;;;;5050596;28;20138;-72
2021/11/29 01:56:32;;;;;;;13.25;9.65;;;0.50;99.90;;;;;;5050812;28;20063;-73
2021/11/29 01:59:05;;;;;;;13.68;10.32;;;0.50;99.90;;;;;;5051663;28;20127;-72
2021/11/29 02:01:37;;;;;;;12.00;8.60;;;0.50;99.90;;;;;;5049733;28;20099;-72
2021/11/29 02:04:12;;;;;;;14.20;10.88;;;0.50;99.90;;;;;;5050551;28;20045;-72
2021/11/29 02:06:46;;;;;;;14.20;9.90;;;0.60;99.90;;;;;;5051728;28;20041;-72
2021/11/29 02:09:17;;;;;;;14.40;9.93;;;0.60;99.90;;;;;;5050596;28;20037;-72
2021/11/29 02:11:44;;;;;;;12.88;9.85;;;0.60;99.90;;;;;;5050211;28;20044;-72
2021/11/29 02:14:16;;;;;;;13.18;9.60;;;0.60;99.90;;;;;;5051744;28;20045;-71
2021/11/29 02:16:48;;;;;;;13.73;9.98;;;0.60;99.90;;;;;;5049932;28;20128;-72
2021/11/29 02:19:16;;;;;;;13.57;9.95;;;0.50;99.90;;;;;;5050478;28;20061;-72
2021/11/29 02:21:48;;;;;;;16.45;10.57;;;0.50;99.90;;;;;;5033746;28;20052;-74
2021/11/29 02:24:17;;;;;;;11.88;9.85;;;0.50;99.90;;;;;;5049842;28;20485;-72
2021/11/29 02:26:49;;;;;;;13.23;9.73;;;0.40;99.90;;;;;;5051093;28;20053;-72
2021/11/29 02:29:16;;;;;;;14.98;9.95;;;0.40;99.90;;;;;;5051608;28;20124;-72
2021/11/29 02:31:49;;;;;;;17.45;11.15;;;0.40;99.90;;;;;;5051295;28;20072;-71
2021/11/29 02:34:25;;;;;;;13.95;10.35;;;0.30;99.90;;;;;;5050308;28;20500;-71
2021/11/29 02:36:59;;;;;;;15.23;10.77;;;0.30;99.90;;;;;;5051481;28;20444;-72
2021/11/29 02:39:32;;;;;;;13.07;10.23;;;0.30;99.90;;;;;;5034380;28;20586;-73
2021/11/29 02:42:02;;;;;;;15.30;9.60;;;0.30;99.90;;;;;;5049543;28;20087;-72
2021/11/29 02:44:36;;;;;;;13.00;10.05;;;0.30;99.90;;;;;;5051060;28;20053;-73
2021/11/29 02:47:08;;;;;;;19.42;10.70;;;0.30;99.90;;;;;;5050108;28;20119;-73
2021/11/29 02:49:35;;;;;;;14.27;9.30;;;0.30;99.90;;;;;;5051449;28;20120;-72
2021/11/29 02:52:12;;;;;;;13.95;10.25;;;0.20;99.90;;;;;;5051018;28;20040;-72
2021/11/29 02:54:45;;;;;;;15.52;10.25;;;0.20;99.90;;;;;;5051305;28;20056;-72
2021/11/29 02:57:21;;;;;;;13.33;9.33;;;0.20;99.90;;;;;;5050257;28;20124;-71
2021/11/29 02:59:52;;;;;;;18.02;11.20;;;0.20;99.90;;;;;;5049865;28;20041;-73
2021/11/29 03:02:25;;;;;;;13.13;9.95;;;0.20;99.90;;;;;;5049800;28;20041;-71
2021/11/29 03:04:51;;;;;;;14.50;9.77;;;0.10;99.90;;;;;;5050010;28;20080;-72
2021/11/29 03:07:23;;;;;;;14.05;9.48;;;0.10;99.90;;;;;;5049968;28;20047;-72
2021/11/29 03:09:56;;;;;;;12.23;9.23;;;0.00;99.90;;;;;;5049868;28;20045;-74
2021/11/29 03:12:28;;;;;;;11.85;9.30;;;0.00;99.90;;;;;;5049713;28;20051;-71
2021/11/29 03:15:03;;;;;;;14.23;9.98;;;0.10;99.90;;;;;;5051152;28;20037;-72
2021/11/29 03:17:35;;;;;;;14.40;10.05;;;0.10;99.90;;;;;;5051119;28;20047;-71
2021/11/29 03:20:11;;;;;;;13.23;10.63;;;0.00;99.90;;;;;;5051053;28;20049;-72
2021/11/29 03:22:44;;;;;;;14.50;10.32;;;0.00;99.90;;;;;;5049883;28;20123;-72
2021/11/29 03:25:17;;;;;;;14.20;9.93;;;0.00;99.90;;;;;;5051170;28;20065;-72
2021/11/29 03:27:49;;;;;;;14.20;10.33;;;0.00;99.90;;;;;;5049690;28;20488;-73
2021/11/29 03:30:16;;;;;;;15.45;10.40;;;0.00;99.90;;;;;;5051108;28;20135;-72
2021/11/29 03:32:47;;;;;;;15.55;10.02;;;0.00;99.90;;;;;;5053393;28;20414;-72
2021/11/29 03:35:19;;;;;;;13.55;9.85;;;0.00;99.90;;;;;;5053692;28;20041;-72
2021/11/29 03:37:51;;;;;;;15.93;10.52;;;0.10;99.90;;;;;;5053620;28;20045;-74
2021/11/29 03:40:23;;;;;;;16.73;10.15;;;0.10;99.90;;;;;;5053032;28;20045;-71
2021/11/29 03:42:55;;;;;;;36.13;20.23;;;0.10;99.90;;;;;;5054440;28;20041;-71
2021/11/29 03:45:27;;;;;;;19.35;11.13;;;0.10;99.90;;;;;;5037347;28;20045;-72
2021/11/29 03:47:59;;;;;;;22.13;15.57;;;0.10;99.90;;;;;;5054500;28;20041;-72
2021/11/29 03:50:31;;;;;;;21.17;13.30;;;0.10;99.90;;;;;;5054100;28;20516;-71
2021/11/29 03:53:03;;;;;;;28.02;18.08;;;0.10;99.90;;;;;;5053304;28;20036;-71
2021/11/29 03:55:35;;;;;;;26.63;16.92;;;0.10;99.90;;;;;;5053044;28;20049;-72
2021/11/29 03:58:01;;;;;;;20.33;13.75;;;0.10;99.90;;;;;;5054177;28;20080;-72
2021/11/29 04:00:36;;;;;;;17.10;11.60;;;0.10;99.90;;;;;;5053943;28;20040;-71
2021/11/29 04:03:09;;;;;;;16.33;11.43;;;0.00;99.90;;;;;;5054264;28;20051;-72
2021/11/29 04:05:41;;;;;;;24.73;16.08;;;0.00;99.90;;;;;;5054292;28;20043;-72
2021/11/29 04:08:14;;;;;;;19.50;13.35;;;0.00;99.90;;;;;;5053844;28;20037;-72
2021/11/29 04:10:47;;;;;;;16.27;9.90;;;0.00;99.90;;;;;;5053865;28;20491;-71
2021/11/29 04:13:19;;;;;;;19.67;13.57;;;0.00;99.90;;;;;;5053918;28;20049;-72
2021/11/29 04:15:46;;;;;;;15.40;10.65;;;0.00;99.90;;;;;;5054034;28;20284;-72
2021/11/29 04:18:18;;;;;;;13.27;9.52;;;0.00;99.90;;;;;;5052914;28;20116;-72
2021/11/29 04:20:49;;;;;;;16.00;10.85;;;0.00;99.90;;;;;;5052026;28;20586;-71
2021/11/29 04:23:16;;;;;;;15.55;10.80;;;0.00;99.90;;;;;;5052493;28;20483;-72
2021/11/29 04:25:57;;;;;;;17.17;10.88;;;0.00;99.90;;;;;;5053754;28;20041;-72
2021/11/29 04:28:30;;;;;;;14.93;10.40;;;0.00;99.90;;;;;;5053705;28;20041;-71
2021/11/29 04:31:02;;;;;;;13.83;10.17;;;0.00;99.90;;;;;;5053416;28;20047;-72
2021/11/29 04:33:34;;;;;;;16.13;11.90;;;0.00;99.90;;;;;;5052337;28;20506;-72
2021/11/29 04:36:06;;;;;;;19.73;14.00;;;0.00;99.90;;;;;;5052487;28;20051;-71
2021/11/29 04:38:38;;;;;;;14.00;10.25;;;0.00;99.90;;;;;;5055427;28;20131;-71
2021/11/29 04:41:10;;;;;;;16.25;10.00;;;0.10;99.90;;;;;;5054685;28;20041;-71
2021/11/29 04:43:42;;;;;;;17.15;11.63;;;0.00;99.90;;;;;;5053717;28;20044;-72
2021/11/29 04:46:14;;;;;;;14.88;11.60;;;0.00;99.90;;;;;;5053404;28;20508;-72
2021/11/29 04:48:46;;;;;;;16.70;10.80;;;0.10;99.90;;;;;;5053616;28;20125;-72
2021/11/29 04:51:18;;;;;;;18.15;11.57;;;0.10;99.90;;;;;;5051044;28;20139;-73
2021/11/29 04:53:51;;;;;;;15.45;10.85;;;0.10;99.90;;;;;;5052739;28;20076;-71
2021/11/29 04:56:24;;;;;;;15.52;11.15;;;0.10;99.90;;;;;;5051456;28;20148;-73
2021/11/29 04:58:52;;;;;;;18.77;12.45;;;0.20;99.90;;;;;;5042882;28;20144;-71
2021/11/29 05:01:26;;;;;;;16.42;11.82;;;0.20;99.90;;;;;;5041655;28;20045;-71
2021/11/29 05:03:58;;;;;;;18.60;13.57;;;0.20;99.90;;;;;;5049680;28;20087;-72
2021/11/29 05:06:30;;;;;;;16.98;11.50;;;0.20;99.90;;;;;;5045555;28;20129;-71
2021/11/29 05:09:09;;;;;;;17.05;11.43;;;0.20;99.90;;;;;;5025705;28;21522;-73
2021/11/29 05:11:36;;;;;;;14.47;9.40;;;0.20;99.90;;;;;;5047296;28;20519;-70
2021/11/29 05:14:03;;;;;;;17.20;11.50;;;0.20;99.90;;;;;;5047740;28;20361;-73
2021/11/29 05:16:30;;;;;;;16.63;11.00;;;0.20;99.90;;;;;;5049921;28;20136;-72
2021/11/29 05:18:57;;;;;;;15.32;11.23;;;0.20;99.90;;;;;;5041861;28;20045;-72
2021/11/29 05:21:28;;;;;;;20.77;12.40;;;0.20;99.90;;;;;;5049869;28;20552;-72
2021/11/29 05:23:55;;;;;;;18.02;11.65;;;0.10;99.90;;;;;;5035083;28;20079;-71
2021/11/29 05:26:25;;;;;;;19.00;11.68;;;0.20;99.90;;;;;;5031519;28;20542;-72
2021/11/29 05:28:59;;;;;;;17.40;11.18;;;0.20;99.90;;;;;;5022931;28;20036;-71
2021/11/29 05:31:26;;;;;;;17.38;12.02;;;0.30;99.90;;;;;;5047177;28;20087;-72
2021/11/29 05:34:01;;;;;;;24.75;15.20;;;0.30;99.90;;;;;;5038832;28;20487;-72
2021/11/29 05:36:33;;;;;;;29.20;17.80;;;0.20;99.90;;;;;;5043268;28;20514;-72
2021/11/29 05:39:06;;;;;;;20.30;12.30;;;0.20;99.90;;;;;;5048151;28;20056;-72
2021/11/29 05:41:38;;;;;;;19.80;12.85;;;0.20;99.90;;;;;;5053403;28;20414;-70
2021/11/29 05:44:10;;;;;;;17.70;10.15;;;0.20;99.90;;;;;;5030526;28;20063;-72
2021/11/29 05:46:37;;;;;;;18.10;11.27;;;0.20;99.90;;;;;;5030762;28;20076;-71
2021/11/29 05:49:10;;;;;;;18.00;11.65;;;0.20;99.90;;;;;;5030531;28;20550;-72
2021/11/29 05:51:43;;;;;;;14.52;9.15;;;0.20;99.90;;;;;;5030072;28;20064;-71
2021/11/29 05:54:16;;;;;;;16.70;10.23;;;0.20;99.90;;;;;;5030495;28;20133;-71
2021/11/29 05:56:47;;;;;;;15.40;9.32;;;0.20;99.90;;;;;;5030183;28;20071;-72
2021/11/29 05:59:21;;;;;;;15.00;9.80;;;0.20;99.90;;;;;;5031589;28;20115;-72
2021/11/29 06:01:50;;;;;;;15.15;9.30;;;0.20;99.90;;;;;;5033509;28;20423;-72
2021/11/29 06:04:18;;;;;;;17.67;9.20;;;0.20;99.90;;;;;;5047646;28;20037;-72
2021/11/29 06:06:49;;;;;;;14.65;7.75;;;0.20;99.90;;;;;;5046950;28;20149;-72
2021/11/29 06:09:22;;;;;;;17.17;10.23;;;0.20;99.90;;;;;;5032210;28;20057;-71
2021/11/29 06:11:55;;;;;;;22.87;10.10;;;0.30;99.90;;;;;;5048967;28;20063;-72
2021/11/29 06:14:27;;;;;;;13.15;8.65;;;0.30;99.90;;;;;;5050806;28;20075;-72
2021/11/29 06:16:59;;;;;;;13.35;8.60;;;0.30;99.90;;;;;;5049480;28;20153;-72
2021/11/29 06:19:31;;;;;;;16.63;9.85;;;0.30;99.90;;;;;;5048750;28;20155;-73
2021/11/29 06:22:03;;;;;;;15.02;10.05;;;0.30;99.90;;;;;;5031510;28;20036;-72
2021/11/29 06:24:35;;;;;;;16.08;11.05;;;0.30;99.90;;;;;;5049430;28;20515;-72
2021/11/29 06:27:02;;;;;;;14.20;9.45;;;0.30;99.90;;;;;;5049270;28;20463;-72
2021/11/29 06:29:34;;;;;;;16.08;9.82;;;0.30;99.90;;;;;;5049474;28;20115;-72
2021/11/29 06:32:06;;;;;;;15.35;9.93;;;0.30;99.90;;;;;;5034946;28;20136;-72
2021/11/29 06:34:38;;;;;;;15.88;10.00;;;0.30;99.90;;;;;;5029357;28;20124;-73
2021/11/29 06:37:11;;;;;;;18.80;11.50;;;0.30;99.90;;;;;;5041178;28;20131;-72
2021/11/29 06:39:43;;;;;;;15.80;9.25;;;0.30;99.90;;;;;;5033240;28;20045;-72
2021/11/29 06:42:15;;;;;;;14.30;9.50;;;0.30;99.90;;;;;;5044281;28;20694;-72
2021/11/29 06:44:47;;;;;;;13.38;8.18;;;0.20;99.90;;;;;;5048764;28;20132;-72
2021/11/29 06:47:14;;;;;;;13.65;8.27;;;0.30;99.90;;;;;;5047165;28;20048;-72
2021/11/29 06:49:46;;;;;;;16.17;9.02;;;0.20;99.90;;;;;;5031603;28;20136;-71
2021/11/29 06:52:17;;;;;;;15.43;8.90;;;0.20;99.90;;;;;;5038417;28;20045;-72
2021/11/29 06:54:50;;;;;;;14.27;9.68;;;0.20;99.90;;;;;;5042594;28;20411;-72
2021/11/29 06:57:22;;;;;;;14.32;9.45;;;0.20;99.90;;;;;;5030635;28;20125;-71
2021/11/29 06:59:54;;;;;;;13.60;9.02;;;0.20;99.90;;;;;;5034570;28;20470;-71
2021/11/29 07:02:26;;;;;;;15.93;9.55;;;0.20;99.90;;;;;;5038684;28;20079;-72
2021/11/29 07:04:59;;;;;;;16.85;9.32;;;0.10;99.90;;;;;;5030095;28;20124;-72
2021/11/29 07:07:25;;;;;;;15.98;10.18;;;0.10;99.90;;;;;;5041233;28;20065;-72
2021/11/29 07:09:52;;;;;;;15.57;10.32;;;0.10;99.90;;;;;;5034503;28;20451;-72
2021/11/29 07:12:24;;;;;;;15.65;10.32;;;0.10;99.90;;;;;;5033032;28;20041;-72
2021/11/29 07:14:56;;;;;;;17.27;9.63;;;0.10;99.90;;;;;;5035303;28;20142;-72
2021/11/29 07:17:28;;;;;;;15.90;10.10;;;0.10;99.90;;;;;;5040213;28;20140;-72
2021/11/29 07:19:54;;;;;;;15.05;10.20;;;0.10;99.90;;;;;;5046502;28;20079;-72
2021/11/29 07:22:26;;;;;;;15.52;9.73;;;0.10;99.90;;;;;;5047075;28;20041;-71
2021/11/29 07:25:02;;;;;;;15.02;9.98;;;0.10;99.90;;;;;;5041326;28;20483;-72
2021/11/29 07:27:34;;;;;;;15.13;10.00;;;0.10;99.90;;;;;;5049941;28;20033;-72
2021/11/29 07:30:08;;;;;;;17.40;11.52;;;0.10;99.90;;;;;;5053447;28;20144;-72
2021/11/29 07:32:40;;;;;;;;;;;0.20;99.90;;;;;;5053422;28;20103;-72
2021/11/29 07:35:13;;;;;;;18.25;10.70;;;0.10;99.90;;;;;;5043031;28;19921;-72
2021/11/29 07:37:42;;;;;;;17.90;10.85;;;0.20;99.90;;;;;;5038236;28;20414;-72
2021/11/29 07:40:14;;;;;;;19.17;12.07;;;0.20;99.90;;;;;;5050019;28;20132;-73
2021/11/29 07:42:46;;;;;;;20.42;11.98;;;0.20;99.90;;;;;;5046266;28;20043;-72
2021/11/29 07:45:13;;;;;;;21.25;13.50;;;0.10;99.90;;;;;;5046123;28;20475;-72
2021/11/29 07:47:46;;;;;;;21.50;13.85;;;0.10;99.90;;;;;;5050944;28;20065;-72
2021/11/29 07:50:15;;;;;;;19.77;12.85;;;0.20;99.90;;;;;;5049402;28;20124;-70
2021/11/29 07:52:48;;;;;;;23.73;12.85;;;0.20;99.90;;;;;;5051812;28;20041;-72
2021/11/29 07:55:21;;;;;;;23.40;14.60;;;0.20;99.90;;;;;;5052810;28;20123;-72
2021/11/29 07:57:54;;;;;;;19.90;12.63;;;0.20;99.90;;;;;;5052025;28;20044;-74
2021/11/29 08:00:25;;;;;;;21.63;12.65;;;0.20;99.90;;;;;;5050953;28;20132;-72
2021/11/29 08:02:58;;;;;;;22.65;12.95;;;0.20;99.90;;;;;;5051323;28;20120;-72
2021/11/29 08:05:27;;;;;;;18.33;11.70;;;0.20;99.90;;;;;;5048421;28;20065;-73
2021/11/29 08:08:00;;;;;;;;;;;0.20;99.90;;;;;;5043650;28;20044;-73
2021/11/29 08:10:34;;;;;;;24.55;12.60;;;0.20;99.90;;;;;;5051373;28;20358;-72
2021/11/29 08:13:08;;;;;;;19.23;11.85;;;0.20;99.90;;;;;;5051548;28;20040;-72
2021/11/29 08:15:39;;;;;;;21.38;12.65;;;0.20;99.90;;;;;;5051403;28;20076;-73
2021/11/29 08:18:11;;;;;;;22.52;14.07;;;0.20;99.90;;;;;;5042397;28;20140;-72
2021/11/29 08:20:43;;;;;;;23.20;13.18;;;0.20;99.90;;;;;;5051285;28;20115;-72
2021/11/29 08:23:16;;;;;;;21.60;13.80;;;0.20;99.90;;;;;;5052458;28;20045;-73
2021/11/29 08:25:43;;;;;;;20.77;12.93;;;0.20;99.90;;;;;;5051302;28;20575;-73
2021/11/29 08:28:15;;;;;;;22.25;13.38;;;0.30;99.90;;;;;;5051433;28;20698;-74
2021/11/29 08:30:48;;;;;;;22.52;13.82;;;0.30;99.90;;;;;;5041910;28;20597;-72
2021/11/29 08:33:19;;;;;;;22.88;13.13;;;0.30;99.90;;;;;;5031642;28;20042;-72
2021/11/29 08:35:51;;;;;;;27.65;18.40;;;0.30;99.90;;;;;;5041152;28;20045;-73
2021/11/29 08:38:23;;;;;;;23.42;15.13;;;0.30;99.90;;;;;;5047509;28;20490;-72
2021/11/29 08:40:55;;;;;;;24.00;13.45;;;0.30;99.90;;;;;;5046135;28;20132;-72
2021/11/29 08:43:27;;;;;;;26.55;13.93;;;0.40;99.90;;;;;;5039813;28;20508;-72
2021/11/29 08:45:54;;;;;;;24.42;14.48;;;0.50;99.90;;;;;;5041259;28;20139;-72
2021/11/29 08:48:26;;;;;;;22.80;14.48;;;0.50;99.90;;;;;;5046789;28;20119;-72
2021/11/29 08:50:55;;;;;;;24.58;14.23;;;0.60;99.90;;;;;;5045484;28;20124;-72
2021/11/29 08:53:27;;;;;;;21.58;13.93;;;0.70;99.90;;;;;;5051642;28;20056;-72
2021/11/29 08:55:55;;;;;;;27.05;14.50;;;0.70;99.90;;;;;;5052020;28;20045;-73
2021/11/29 08:58:23;;;;;;;24.08;15.35;;;0.70;99.90;;;;;;5035658;28;20072;-72
2021/11/29 09:00:56;;;;;;;22.48;13.85;;;0.80;99.90;;;;;;5052010;28;20049;-73
2021/11/29 09:03:23;;;;;;;23.52;14.40;;;0.70;99.90;;;;;;5048878;28;20061;-73
2021/11/29 09:05:56;;;;;;;24.60;14.38;;;0.80;99.90;;;;;;5048622;28;20040;-73
2021/11/29 09:08:28;;;;;;;22.17;13.75;;;0.80;99.90;;;;;;5046322;28;20056;-72
2021/11/29 09:11:00;;;;;;;28.08;16.25;;;0.80;99.90;;;;;;5044611;28;20120;-73
2021/11/29 09:13:32;;;;;;;27.70;16.45;;;0.80;99.90;;;;;;5051134;28;20041;-72
2021/11/29 09:16:06;;;;;;;29.65;16.92;;;0.70;99.90;;;;;;5044322;28;20144;-73
2021/11/29 09:18:33;;;;;;;30.08;16.58;;;0.70;99.90;;;;;;5047677;28;20141;-72
2021/11/29 09:21:01;;;;;;;32.50;17.75;;;0.70;99.90;;;;;;5050570;28;20118;-73
2021/11/29 09:23:34;;;;;;;34.67;19.42;;;0.50;99.90;;;;;;5050942;28;20553;-72
2021/11/29 09:26:06;;;;;;;28.50;17.48;;;0.50;99.90;;;;;;5051018;28;20129;-71
2021/11/29 09:28:34;;;;;;;35.58;18.77;;;0.40;99.90;;;;;;5050548;28;20065;-72
2021/11/29 09:31:06;;;;;;;34.38;19.02;;;0.30;99.90;;;;;;5051777;28;20036;-71
2021/11/29 09:33:34;;;;;;;32.85;19.15;;;0.30;99.90;;;;;;5051944;28;20080;-72
2021/11/29 09:36:02;;;;;;;39.20;20.65;;;0.30;99.90;;;;;;5047440;28;20139;-71
2021/11/29 09:38:35;;;;;;;34.47;18.20;;;0.30;99.90;;;;;;5035031;28;20051;-72
2021/11/29 09:41:04;;;;;;;35.75;18.80;;;0.30;99.90;;;;;;5049358;28;20132;-72
2021/11/29 09:43:37;;;;;;;33.00;18.83;;;0.30;99.90;;;;;;5048617;28;20037;-71
2021/11/29 09:46:09;;;;;;;34.08;19.83;;;0.20;99.90;;;;;;5050633;28;20051;-71
2021/11/29 09:48:41;;;;;;;31.98;17.48;;;0.20;99.90;;;;;;5051893;28;20037;-71
2021/11/29 09:51:13;;;;;;;33.10;18.30;;;0.20;99.90;;;;;;5047285;28;20128;-72
2021/11/29 09:53:45;;;;;;;34.97;17.77;;;0.20;99.90;;;;;;5038077;28;20509;-72
2021/11/29 09:56:17;;;;;;;36.83;17.35;;;0.20;99.90;;;;;;5049912;28;20132;-72
2021/11/29 09:58:47;;;;;;;33.03;18.35;;;0.20;99.90;;;;;;5050362;28;20048;-71
2021/11/29 10:01:19;;;;;;;34.17;16.92;;;0.20;99.90;;;;;;5033663;28;20515;-73
2021/11/29 10:03:51;;;;;;;29.67;15.00;;;0.30;99.90;;;;;;5045464;28;20403;-73
2021/11/29 10:06:17;;;;;;;33.67;16.55;;;0.30;99.90;;;;;;5036299;28;20126;-73
2021/11/29 10:08:50;;;;;;;28.27;16.10;;;0.40;99.90;;;;;;5034927;28;20128;-73
2021/11/29 10:11:25;;;;;;;25.70;15.45;;;0.40;99.90;;;;;;5050354;28;20123;-72
2021/11/29 10:14:02;;;;;;;25.95;15.55;;;0.60;99.90;;;;;;5044037;28;20128;-72
2021/11/29 10:16:42;;;;;;;26.75;13.98;;;0.60;99.90;;;;;;5030792;28;20143;-73
2021/11/29 10:19:24;;;;;;;25.92;13.68;;;0.70;99.90;;;;;;5039658;28;20120;-72
2021/11/29 10:22:20;;;;;;;23.05;13.00;;;0.70;99.90;;;;;;5042171;28;20044;-72
2021/11/29 10:24:52;;;;;;;22.92;12.95;;;0.70;99.90;;;;;;5028949;28;20448;-74
2021/11/29 10:27:38;;;;;;;22.60;12.57;;;0.70;99.90;;;;;;5031855;28;20072;-73
2021/11/29 10:30:07;;;;;;;22.08;13.30;;;0.70;99.90;;;;;;5034389;28;20067;-72
2021/11/29 10:32:46;;;;;;;22.58;13.00;;;0.60;99.90;;;;;;5034474;28;20469;-72
2021/11/29 10:35:33;;;;;;;23.50;13.40;;;0.70;99.90;;;;;;5049442;28;20047;-71
2021/11/29 10:38:00;;;;;;;22.63;12.88;;;0.70;99.90;;;;;;5043869;28;20080;-72
2021/11/29 10:40:28;;;;;;;25.08;13.45;;;0.70;99.90;;;;;;5028085;28;20140;-72
2021/11/29 10:43:06;;;;;;;23.85;13.60;;;0.70;99.90;;;;;;5031276;28;20032;-72
2021/11/29 10:45:40;;;;;;;21.13;13.18;;;0.70;99.90;;;;;;5049400;28;20049;-72
2021/11/29 10:48:25;;;;;;;24.05;13.98;;;0.70;99.90;;;;;;5033658;28;20040;-72
2021/11/29 10:51:10;;;;;;;25.48;13.50;;;0.70;99.90;;;;;;5049076;28;20459;-72
2021/11/29 10:53:51;;;;;;;21.80;12.30;;;0.70;99.90;;;;;;5049598;28;20072;-73
2021/11/29 10:56:25;;;;;;;20.52;11.80;;;0.60;99.90;;;;;;5049632;28;20087;-72
2021/11/29 10:58:59;;;;;;;25.25;12.52;;;0.70;99.90;;;;;;5049608;28;20083;-71
2021/11/29 11:01:43;;;;;;;21.77;12.60;;;0.80;99.90;;;;;;5049014;28;20466;-72
2021/11/29 11:04:19;;;;;;;22.80;13.77;;;0.80;99.90;;;;;;5050583;28;20045;-72
2021/11/29 11:07:02;;;;;;;23.85;13.35;;;0.90;99.90;;;;;;5048658;28;20064;-72
2021/11/29 11:09:49;;;;;;;21.58;13.27;;;1.00;99.90;;;;;;5033282;28;20079;-71
2021/11/29 11:12:15;;;;;;;22.88;12.38;;;1.10;99.90;;;;;;5046104;28;20041;-72
2021/11/29 11:14:53;;;;;;;20.42;11.98;;;1.20;99.90;;;;;;5029291;28;20130;-74
2021/11/29 11:17:26;;;;;;;19.50;11.00;;;1.30;99.90;;;;;;5030073;28;20585;-72
2021/11/29 11:20:00;;;;;;;16.83;10.02;;;1.50;99.90;;;;;;5032264;28;20049;-71
2021/11/29 11:22:38;;;;;;;15.15;9.52;;;1.50;99.90;;;;;;5049374;28;20037;-72
2021/11/29 11:25:14;;;;;;;18.13;10.55;;;1.50;99.90;;;;;;5031765;28;20041;-72
2021/11/29 11:27:52;;;;;;;18.80;9.98;;;1.40;99.90;;;;;;5028781;28;20231;-72
2021/11/29 11:30:26;;;;;;;15.05;9.15;;;1.40;99.90;;;;;;5028894;28;20465;-73
2021/11/29 11:32:59;;;;;;;;;;;1.30;99.90;;;;;;5029718;28;20120;-71
2021/11/29 11:35:34;;;;;;;12.90;7.77;;;1.30;99.90;;;;;;5030035;28;19952;-71
2021/11/29 11:38:11;;;;;;;14.55;8.85;;;1.30;99.90;;;;;;5038245;28;20045;-71
2021/11/29 11:40:48;;;;;;;14.98;7.78;;;1.30;99.90;;;;;;5049120;28;20045;-72
2021/11/29 11:43:22;;;;;;;13.60;8.18;;;1.30;99.90;;;;;;5045343;28;20088;-72
2021/11/29 11:45:51;;;;;;;14.30;8.18;;;1.40;99.90;;;;;;5047016;28;20507;-72
2021/11/29 11:48:18;;;;;;;13.10;7.68;;;1.40;99.90;;;;;;5049011;28;20151;-71
2021/11/29 11:50:55;;;;;;;13.20;7.50;;;1.60;99.90;;;;;;5033261;28;20434;-70
2021/11/29 11:53:26;;;;;;;14.02;6.72;;;1.70;99.90;;;;;;5051397;28;20051;-71
2021/11/29 11:55:59;;;;;;;9.50;6.25;;;1.70;99.90;;;;;;5048408;28;20053;-71
2021/11/29 11:58:50;;;;;;;13.60;7.93;;;1.70;99.90;;;;;;5042421;28;20123;-71
2021/11/29 12:01:26;;;;;;;10.73;6.07;;;1.50;99.90;;;;;;5042964;28;20055;-72
2021/11/29 12:03:58;;;;;;;10.52;6.72;;;1.30;99.90;;;;;;5031243;28;20036;-71
2021/11/29 12:06:35;;;;;;;13.60;5.82;;;1.20;99.90;;;;;;5039444;28;20061;-71
2021/11/29 12:09:08;;;;;;;10.52;6.38;;;1.10;99.90;;;;;;5049183;28;20049;-72
2021/11/29 12:11:45;;;;;;;10.63;6.28;;;1.20;99.90;;;;;;5052432;28;20135;-71
2021/11/29 12:14:23;;;;;;;10.48;5.82;;;1.20;99.90;;;;;;5017756;28;20064;-73
2021/11/29 12:16:59;;;;;;;12.88;6.00;;;1.30;99.90;;;;;;5032430;28;20056;-71
2021/11/29 12:19:40;;;;;;;9.25;5.22;;;1.40;99.90;;;;;;5032578;28;20048;-71
2021/11/29 12:22:16;;;;;;;11.52;5.70;;;1.50;99.90;;;;;;5015262;28;20080;-72
2021/11/29 12:25:11;;;;;;;8.40;5.32;;;1.50;99.90;;;;;;5031057;28;20050;-72
2021/11/29 12:27:52;;;;;;;7.93;4.93;;;1.50;99.90;;;;;;5031980;28;20041;-70
2021/11/29 12:30:44;;;;;;;10.13;6.43;;;1.50;99.90;;;;;;5043214;28;20081;-71
2021/11/29 12:33:16;;;;;;;9.73;5.28;;;1.50;99.90;;;;;;5050542;28;20144;-71
2021/11/29 12:36:02;;;;;;;10.70;6.43;;;1.50;99.90;;;;;;5044779;28;20063;-72
2021/11/29 12:38:49;;;;;;;10.13;5.43;;;1.60;99.90;;;;;;5039293;28;20514;-71
2021/11/29 12:41:38;;;;;;;14.70;6.07;;;1.60;99.90;;;;;;5031480;28;20050;-71
2021/11/29 12:44:06;;;;;;;5.78;4.20;;;1.60;99.90;;;;;;5030848;28;20077;-72
2021/11/29 12:46:37;;;;;;;9.20;5.07;;;1.60;99.90;;;;;;5040716;28;20408;-71
2021/11/29 12:49:39;;;;;;;7.28;4.60;;;1.60;99.90;;;;;;5032853;28;20042;-72
2021/11/29 12:52:45;;;;;;;7.43;4.10;;;1.60;99.90;;;;;;5032617;28;20037;-72
2021/11/29 12:55:19;;;;;;;10.52;4.75;;;1.80;99.90;;;;;;5028638;28;20052;-71
2021/11/29 12:58:06;;;;;;;7.55;4.10;;;1.90;99.90;;;;;;5051547;28;20053;-73
2021/11/29 13:00:42;;;;;;;8.48;4.30;;;2.00;99.90;;;;;;5052415;28;20131;-71
2021/11/29 13:03:15;;;;;;;8.90;4.65;;;2.10;99.90;;;;;;5050294;28;20419;-72
2021/11/29 13:06:05;;;;;;;8.52;4.65;;;2.20;99.90;;;;;;5051386;28;20139;-71
2021/11/29 13:08:35;;;;;;;12.55;4.82;;;2.20;99.90;;;;;;5045976;28;20444;-71
2021/11/29 13:11:32;;;;;;;9.48;4.82;;;2.20;99.90;;;;;;5048681;28;20131;-71